Time;durP1;ratioP1;P1;durP2;ratioP2;P2;SDS_P1;SDS_P2;PMS_P1;PMS_P2;Temp;Humidity;BMP_temperature;BMP_pressure;BME280_temperature;BME280_humidity;BME280_pressure;Samples;Min_cycle;Max_cycle;Signal;HPM_P1;HPM_P2
2022/01/10 06:16:05;;;;;;;72.47;9.13;;;;;;;;;;5877291;23;19973;-87
2022/01/10 06:18:32;;;;;;;67.82;7.88;;;;;;;;;;4931563;29;20051;-93
2022/01/10 06:20:59;;;;;;;82.30;9.40;;;;;;;;;;4931217;29;20052;-91
2022/01/10 06:23:25;;;;;;;71.53;9.57;;;;;;;;;;4913780;29;20106;-88
2022/01/10 06:25:52;;;;;;;60.97;7.22;;;;;;;;;;4915512;29;20107;-87
2022/01/10 06:28:19;;;;;;;69.85;7.47;;;;;;;;;;4932335;29;20089;-87
2022/01/10 06:30:46;;;;;;;63.15;8.27;;;;;;;;;;4934756;29;20108;-88
2022/01/10 06:33:12;;;;;;;64.28;8.02;;;;;;;;;;4916746;29;20055;-88
2022/01/10 06:35:42;;;;;;;68.07;7.80;;;;;;;;;;4917204;29;20115;-88
2022/01/10 06:38:08;;;;;;;71.57;8.65;;;;;;;;;;4932771;29;20048;-87
2022/01/10 06:40:35;;;;;;;81.78;7.80;;;;;;;;;;4916946;29;20047;-89
2022/01/10 06:43:04;;;;;;;71.35;7.72;;;;;;;;;;4914439;29;20044;-88
2022/01/10 06:45:31;;;;;;;70.43;8.10;;;;;;;;;;4919540;29;20051;-89
2022/01/10 06:47:58;;;;;;;69.25;8.57;;;;;;;;;;4917705;29;20103;-88
2022/01/10 06:50:25;;;;;;;69.55;8.68;;;;;;;;;;4915579;29;20051;-89
2022/01/10 06:52:54;;;;;;;76.18;8.70;;;;;;;;;;4930095;29;20516;-89
2022/01/10 06:55:20;;;;;;;69.72;8.05;;;;;;;;;;4908361;29;20143;-90
2022/01/10 06:57:47;;;;;;;70.65;9.20;;;;;;;;;;4922122;29;20059;-87
2022/01/10 07:00:14;;;;;;;66.63;7.63;;;;;;;;;;4923181;29;20071;-90
2022/01/10 07:02:43;;;;;;;63.33;7.28;;;;;;;;;;4917885;29;20496;-89
2022/01/10 07:05:10;;;;;;;55.83;7.25;;;;;;;;;;4917759;29;20515;-88
2022/01/10 07:07:37;;;;;;;58.95;7.43;;;;;;;;;;4934244;29;20067;-90
2022/01/10 07:10:04;;;;;;;68.45;7.97;;;;;;;;;;4918642;29;20108;-91
2022/01/10 07:12:31;;;;;;;54.60;7.05;;;;;;;;;;4935393;29;20052;-88
2022/01/10 07:14:58;;;;;;;68.82;6.55;;;;;;;;;;4934245;29;20504;-86
2022/01/10 07:17:24;;;;;;;71.88;8.05;;;;;;;;;;4932821;29;20051;-88
2022/01/10 07:19:51;;;;;;;63.53;7.35;;;;;;;;;;4913013;29;20104;-87
2022/01/10 07:22:18;;;;;;;61.22;6.93;;;;;;;;;;4926114;29;20060;-87
2022/01/10 07:24:45;;;;;;;53.05;5.93;;;;;;;;;;4936390;29;20040;-87
2022/01/10 07:27:11;;;;;;;51.72;6.55;;;;;;;;;;4918778;29;20119;-87
2022/01/10 07:29:38;;;;;;;54.83;6.63;;;;;;;;;;4936515;29;20099;-86
2022/01/10 07:32:06;;;;;;;60.22;7.88;;;;;;;;;;4929427;29;20070;-85
2022/01/10 07:34:32;;;;;;;54.65;6.93;;;;;;;;;;4936154;29;20466;-90
2022/01/10 07:36:59;;;;;;;47.55;6.13;;;;;;;;;;4930311;29;20056;-88
2022/01/10 07:39:26;;;;;;;53.70;6.35;;;;;;;;;;4921320;29;20044;-86
2022/01/10 07:41:53;;;;;;;54.60;5.90;;;;;;;;;;4919699;29;20052;-86
2022/01/10 07:44:20;;;;;;;52.20;6.45;;;;;;;;;;4934251;29;20107;-87
2022/01/10 07:46:47;;;;;;;57.42;6.43;;;;;;;;;;4920913;29;20056;-88
2022/01/10 07:49:13;;;;;;;52.45;5.93;;;;;;;;;;4925873;29;20052;-86
2022/01/10 07:51:40;;;;;;;55.55;6.78;;;;;;;;;;4933513;29;20047;-89
2022/01/10 07:54:08;;;;;;;58.15;6.57;;;;;;;;;;4917264;29;20056;-88
2022/01/10 07:56:35;;;;;;;44.50;5.03;;;;;;;;;;4922129;29;20052;-87
2022/01/10 07:59:02;;;;;;;45.47;5.63;;;;;;;;;;4929291;29;20067;-89
2022/01/10 08:01:29;;;;;;;37.88;5.00;;;;;;;;;;4931609;29;20576;-91
2022/01/10 08:03:56;;;;;;;33.60;5.00;;;;;;;;;;4928597;29;20580;-88
2022/01/10 08:06:23;;;;;;;43.83;4.70;;;;;;;;;;4919655;29;20492;-91
2022/01/10 08:08:50;;;;;;;40.50;4.30;;;;;;;;;;4936291;29;20059;-87
2022/01/10 08:11:17;;;;;;;36.03;3.85;;;;;;;;;;4936104;29;20124;-89
2022/01/10 08:13:44;;;;;;;31.13;4.15;;;;;;;;;;4924099;29;20056;-87
2022/01/10 08:16:11;;;;;;;27.17;4.40;;;;;;;;;;4926454;29;20119;-87
2022/01/10 08:18:38;;;;;;;25.55;3.30;;;;;;;;;;4923685;29;20078;-87
2022/01/10 08:21:06;;;;;;;30.17;6.20;;;;;;;;;;4923300;29;20048;-86
2022/01/10 08:23:33;;;;;;;55.72;23.75;;;;;;;;;;4926464;29;20505;-90
2022/01/10 08:26:00;;;;;;;25.00;4.00;;;;;;;;;;4934218;29;20051;-86
2022/01/10 08:28:27;;;;;;;45.03;7.80;;;;;;;;;;4928911;29;20103;-85
2022/01/10 08:30:53;;;;;;;45.13;6.85;;;;;;;;;;4926139;29;20520;-86
2022/01/10 08:33:20;;;;;;;52.20;7.50;;;;;;;;;;4922542;29;20058;-86
2022/01/10 08:35:48;;;;;;;43.20;7.30;;;;;;;;;;4925467;29;20056;-88
2022/01/10 08:38:15;;;;;;;39.95;8.95;;;;;;;;;;4928564;29;20060;-89
2022/01/10 08:40:42;;;;;;;48.15;8.95;;;;;;;;;;4917476;29;20052;-88
2022/01/10 08:43:10;;;;;;;59.95;6.53;;;;;;;;;;4925438;29;20068;-88
2022/01/10 08:45:38;;;;;;;43.30;6.30;;;;;;;;;;4919239;29;20043;-86
2022/01/10 08:48:06;;;;;;;37.47;5.90;;;;;;;;;;4915993;29;20056;-87
2022/01/10 08:50:34;;;;;;;45.03;5.13;;;;;;;;;;4933918;29;20055;-87
2022/01/10 08:53:08;;;;;;;42.20;5.68;;;;;;;;;;4931317;29;20118;-87
2022/01/10 08:55:35;;;;;;;37.97;5.93;;;;;;;;;;4911410;29;20051;-87
2022/01/10 08:58:02;;;;;;;52.97;9.40;;;;;;;;;;4923034;29;20052;-86
2022/01/10 09:00:29;;;;;;;52.38;6.80;;;;;;;;;;4926560;29;20060;-87
2022/01/10 09:02:56;;;;;;;45.78;6.15;;;;;;;;;;4934401;29;20420;-88
2022/01/10 09:05:23;;;;;;;56.72;8.90;;;;;;;;;;4915400;29;20047;-88
2022/01/10 09:07:51;;;;;;;54.95;12.70;;;;;;;;;;4917206;29;20059;-88
2022/01/10 09:10:19;;;;;;;75.40;24.65;;;;;;;;;;4925658;29;20051;-88
2022/01/10 09:12:46;;;;;;;65.60;12.80;;;;;;;;;;4916383;29;20047;-88
2022/01/10 09:15:14;;;;;;;56.50;9.32;;;;;;;;;;4933635;29;20104;-88
2022/01/10 09:17:41;;;;;;;68.03;7.15;;;;;;;;;;4917995;29;20122;-89
2022/01/10 09:20:08;;;;;;;59.35;7.05;;;;;;;;;;4934422;29;20043;-88
2022/01/10 09:22:35;;;;;;;49.03;7.20;;;;;;;;;;4933617;29;20122;-89
2022/01/10 09:25:03;;;;;;;51.40;7.00;;;;;;;;;;4929274;29;20066;-87
2022/01/10 09:27:29;;;;;;;49.88;6.00;;;;;;;;;;4907871;29;20043;-87
2022/01/10 09:29:56;;;;;;;45.28;6.20;;;;;;;;;;4903171;29;20051;-88
2022/01/10 09:32:22;;;;;;;31.88;4.50;;;;;;;;;;4929638;29;20043;-89
2022/01/10 09:34:49;;;;;;;44.75;5.22;;;;;;;;;;4923624;29;20056;-89
2022/01/10 09:37:16;;;;;;;39.20;5.75;;;;;;;;;;4921628;29;20432;-89
2022/01/10 09:39:43;;;;;;;32.40;6.55;;;;;;;;;;4907357;29;20051;-87
2022/01/10 09:42:12;;;;;;;40.28;5.82;;;;;;;;;;4932107;29;20055;-88
2022/01/10 09:44:40;;;;;;;29.63;8.63;;;;;;;;;;4914461;29;20119;-87
2022/01/10 09:47:07;;;;;;;25.85;3.85;;;;;;;;;;4914314;29;20075;-88
2022/01/10 09:49:33;;;;;;;45.28;23.77;;;;;;;;;;4933736;29;20194;-89
2022/01/10 09:52:00;;;;;;;20.83;4.43;;;;;;;;;;4933342;29;20464;-88
2022/01/10 09:54:27;;;;;;;20.52;4.65;;;;;;;;;;4932643;29;20048;-89
2022/01/10 09:56:53;;;;;;;18.13;4.72;;;;;;;;;;4933402;29;20044;-88
2022/01/10 09:59:20;;;;;;;15.43;5.85;;;;;;;;;;4926551;29;20048;-88
2022/01/10 10:01:51;;;;;;;16.67;6.40;;;;;;;;;;4913712;29;20518;-88
2022/01/10 10:04:19;;;;;;;10.82;2.90;;;;;;;;;;4915563;29;20247;-88
2022/01/10 10:06:46;;;;;;;8.90;4.28;;;;;;;;;;4915252;29;20051;-89
2022/01/10 10:09:14;;;;;;;13.75;5.88;;;;;;;;;;4930184;29;20106;-88
2022/01/10 10:11:44;;;;;;;13.07;5.65;;;;;;;;;;4932449;29;20138;-86
2022/01/10 10:14:13;;;;;;;10.27;2.10;;;;;;;;;;4924864;29;20052;-88
2022/01/10 10:16:47;;;;;;;;;;;;;;;;;;4908781;29;20496;-89
2022/01/10 10:19:16;;;;;;;16.15;6.55;;;;;;;;;;4922875;29;20358;-88
2022/01/10 10:21:42;;;;;;;13.90;3.50;;;;;;;;;;4933110;29;20112;-88
2022/01/10 10:24:09;;;;;;;19.60;4.68;;;;;;;;;;4930767;29;20079;-88
2022/01/10 10:26:36;;;;;;;19.65;3.92;;;;;;;;;;4920794;29;20096;-89
2022/01/10 10:29:03;;;;;;;19.45;4.00;;;;;;;;;;4913311;29;20186;-88
2022/01/10 10:31:35;;;;;;;14.05;3.38;;;;;;;;;;4914993;29;20398;-88
2022/01/10 10:34:04;;;;;;;16.92;4.85;;;;;;;;;;4932796;29;20052;-89
2022/01/10 10:36:34;;;;;;;20.67;6.45;;;;;;;;;;4932910;29;20046;-88
2022/01/10 10:39:07;;;;;;;23.88;8.18;;;;;;;;;;4932795;29;20097;-88
2022/01/10 10:41:34;;;;;;;15.77;4.50;;;;;;;;;;4930767;29;20183;-89
2022/01/10 10:44:03;;;;;;;14.77;2.97;;;;;;;;;;4934538;29;20602;-89
2022/01/10 10:46:30;;;;;;;12.88;2.60;;;;;;;;;;4925007;29;20052;-90
2022/01/10 10:49:05;;;;;;;14.50;2.58;;;;;;;;;;4921251;29;20048;-89
2022/01/10 10:51:35;;;;;;;13.73;2.70;;;;;;;;;;4923375;29;20055;-89
2022/01/10 10:54:02;;;;;;;15.43;3.50;;;;;;;;;;4920543;29;20056;-89
2022/01/10 10:56:39;;;;;;;34.55;13.27;;;;;;;;;;4902081;29;20051;-88
2022/01/10 10:59:07;;;;;;;20.17;5.03;;;;;;;;;;4933544;29;20052;-89
2022/01/10 11:01:38;;;;;;;38.33;19.13;;;;;;;;;;4926066;29;20052;-90
2022/01/10 11:04:10;;;;;;;26.55;12.52;;;;;;;;;;4917496;29;20052;-88
2022/01/10 11:06:38;;;;;;;17.27;4.60;;;;;;;;;;4905911;29;20047;-90
2022/01/10 11:09:09;;;;;;;27.15;9.50;;;;;;;;;;4927241;29;20108;-86
2022/01/10 11:11:35;;;;;;;12.98;4.05;;;;;;;;;;4927546;29;20051;-89
2022/01/10 11:14:04;;;;;;;15.57;4.93;;;;;;;;;;4911015;29;20050;-88
2022/01/10 11:16:31;;;;;;;14.20;4.85;;;;;;;;;;4920452;29;20082;-88
2022/01/10 11:18:59;;;;;;;14.57;3.50;;;;;;;;;;4926255;29;20154;-89
2022/01/10 11:21:27;;;;;;;21.70;5.43;;;;;;;;;;4917846;29;20051;-89
2022/01/10 11:23:55;;;;;;;;;;;;;;;;;;4933104;29;20052;-91
2022/01/10 11:26:37;;;;;;;12.10;3.45;;;;;;;;;;4922300;29;19930;-93
2022/01/10 11:29:07;;;;;;;15.10;4.32;;;;;;;;;;4918903;29;20115;-92
2022/01/10 11:31:35;;;;;;;16.42;4.80;;;;;;;;;;4903984;29;20119;-92
2022/01/10 11:34:03;;;;;;;16.10;3.08;;;;;;;;;;4909399;29;20051;-92
2022/01/10 11:36:30;;;;;;;17.20;4.80;;;;;;;;;;4933619;29;20052;-93
2022/01/10 11:39:07;;;;;;;22.80;13.52;;;;;;;;;;4920448;29;20052;-92
2022/01/10 11:41:34;;;;;;;10.38;2.40;;;;;;;;;;4901298;29;20134;-88
2022/01/10 11:44:04;;;;;;;12.85;5.43;;;;;;;;;;4932136;29;20052;-89
2022/01/10 11:46:45;;;;;;;12.13;6.03;;;;;;;;;;4935053;29;20063;-89
2022/01/10 11:49:18;;;;;;;15.85;4.43;;;;;;;;;;4935619;29;20423;-88
2022/01/10 11:51:50;;;;;;;14.05;3.10;;;;;;;;;;4904294;29;20075;-86
2022/01/10 11:54:37;;;;;;;6.60;2.80;;;;;;;;;;4930369;29;20060;-85
2022/01/10 11:57:08;;;;;;;8.18;2.28;;;;;;;;;;4927637;29;20106;-84
2022/01/10 11:59:56;;;;;;;10.90;2.70;;;;;;;;;;4930473;29;20088;-85
2022/01/10 12:02:25;;;;;;;10.05;3.10;;;;;;;;;;4929920;29;20118;-87
2022/01/10 12:04:57;;;;;;;10.23;3.20;;;;;;;;;;4929883;29;20519;-86
2022/01/10 12:07:26;;;;;;;10.25;4.20;;;;;;;;;;4926413;29;20043;-85
2022/01/10 12:09:54;;;;;;;10.88;3.40;;;;;;;;;;4926526;29;20056;-84
2022/01/10 12:12:25;;;;;;;13.13;4.18;;;;;;;;;;4914409;29;20048;-87
2022/01/10 12:14:53;;;;;;;9.90;2.88;;;;;;;;;;4932999;29;20054;-86
2022/01/10 12:17:20;;;;;;;8.43;3.05;;;;;;;;;;4930221;29;20055;-84
2022/01/10 12:19:47;;;;;;;7.70;2.90;;;;;;;;;;4929242;29;20047;-85
2022/01/10 12:22:14;;;;;;;9.52;2.90;;;;;;;;;;4927865;29;20048;-84
2022/01/10 12:24:43;;;;;;;8.47;2.57;;;;;;;;;;4926474;29;20058;-84
2022/01/10 12:27:12;;;;;;;7.68;2.42;;;;;;;;;;4927332;29;20051;-88
2022/01/10 12:29:43;;;;;;;4.60;1.90;;;;;;;;;;4929994;29;20044;-89
2022/01/10 12:32:11;;;;;;;5.65;1.50;;;;;;;;;;4929552;29;20083;-88
2022/01/10 12:34:41;;;;;;;7.10;1.60;;;;;;;;;;4928176;29;20075;-87
2022/01/10 12:37:08;;;;;;;;;;;;;;;;;;4913782;29;20055;-88
2022/01/10 12:39:41;;;;;;;2.88;1.38;;;;;;;;;;4932144;29;19957;-92
2022/01/10 12:42:08;;;;;;;5.85;1.30;;;;;;;;;;4931945;29;20122;-91
2022/01/10 12:44:35;;;;;;;4.63;1.13;;;;;;;;;;4933842;29;20079;-92
2022/01/10 12:47:03;;;;;;;3.17;1.00;;;;;;;;;;4932558;29;20485;-92
2022/01/10 12:49:29;;;;;;;3.40;1.00;;;;;;;;;;4915330;29;20505;-91
2022/01/10 12:51:58;;;;;;;3.28;0.80;;;;;;;;;;4933428;29;20047;-92
2022/01/10 12:54:31;;;;;;;1.75;1.00;;;;;;;;;;4919052;29;20052;-92
2022/01/10 12:57:01;;;;;;;2.40;1.00;;;;;;;;;;4934478;29;20055;-91
2022/01/10 12:59:35;;;;;;;3.97;1.60;;;;;;;;;;4931345;29;20406;-93
2022/01/10 13:02:04;;;;;;;3.20;1.30;;;;;;;;;;4933334;29;20493;-93
2022/01/10 13:04:34;;;;;;;;;;;;;;;;;;4931408;29;20437;-93
2022/01/10 13:07:06;;;;;;;4.35;1.50;;;;;;;;;;4933610;29;19935;-94
2022/01/10 13:09:52;;;;;;;2.45;1.60;;;;;;;;;;4932915;29;20052;-93
2022/01/10 13:12:28;;;;;;;4.57;1.75;;;;;;;;;;4932303;29;20055;-93
2022/01/10 13:15:10;;;;;;;5.90;1.58;;;;;;;;;;4910296;29;20052;-92
2022/01/10 13:17:39;;;;;;;3.45;1.40;;;;;;;;;;4930487;29;20059;-92
2022/01/10 13:20:12;;;;;;;4.88;1.27;;;;;;;;;;4932282;29;20095;-92
2022/01/10 13:22:42;;;;;;;8.05;2.58;;;;;;;;;;4930035;29;20055;-93
2022/01/10 13:25:16;;;;;;;7.82;2.65;;;;;;;;;;4931834;29;20078;-93
2022/01/10 13:27:50;;;;;;;6.88;2.35;;;;;;;;;;4933630;29;20469;-93
2022/01/10 13:30:26;;;;;;;8.82;2.50;;;;;;;;;;4932292;29;20055;-92
2022/01/10 13:33:07;;;;;;;5.43;1.70;;;;;;;;;;4932657;29;20106;-94
2022/01/10 13:35:36;;;;;;;5.53;2.22;;;;;;;;;;4912945;29;20059;-92
2022/01/10 13:38:12;;;;;;;5.65;2.00;;;;;;;;;;4932165;29;20059;-93
2022/01/10 13:40:43;;;;;;;6.47;2.03;;;;;;;;;;4932050;29;20500;-93
2022/01/10 13:43:13;;;;;;;6.00;2.00;;;;;;;;;;4932576;29;20055;-92
2022/01/10 13:45:55;;;;;;;7.10;2.40;;;;;;;;;;4932197;29;20043;-94
2022/01/10 13:48:24;;;;;;;5.30;2.00;;;;;;;;;;4928726;29;20461;-93
2022/01/10 13:50:57;;;;;;;6.93;2.47;;;;;;;;;;4930621;29;20904;-94
2022/01/10 13:53:47;;;;;;;5.10;2.08;;;;;;;;;;4929825;29;20508;-93
2022/01/10 13:56:28;;;;;;;6.85;2.15;;;;;;;;;;4930684;29;20051;-94
2022/01/10 13:58:56;;;;;;;5.45;2.30;;;;;;;;;;4928494;29;20146;-92
2022/01/10 14:01:29;;;;;;;4.67;1.37;;;;;;;;;;4929529;29;20051;-93
2022/01/10 14:03:59;;;;;;;4.53;1.27;;;;;;;;;;4930850;29;20051;-93
2022/01/10 14:06:32;;;;;;;2.92;1.02;;;;;;;;;;4931240;29;20111;-93
2022/01/10 14:09:02;;;;;;;5.20;1.17;;;;;;;;;;4931810;29;20059;-94
2022/01/10 14:11:31;;;;;;;2.97;1.17;;;;;;;;;;4928698;29;20052;-94
2022/01/10 14:14:03;;;;;;;3.72;1.20;;;;;;;;;;4911092;29;20123;-94
2022/01/10 14:16:36;;;;;;;3.17;1.10;;;;;;;;;;4905626;29;20341;-93
2022/01/10 14:19:04;;;;;;;4.50;1.23;;;;;;;;;;4930268;29;20103;-94
2022/01/10 14:21:31;;;;;;;4.53;1.17;;;;;;;;;;4930944;29;20055;-92
2022/01/10 14:23:58;;;;;;;4.22;1.25;;;;;;;;;;4931318;29;20052;-93
2022/01/10 14:26:24;;;;;;;2.95;0.90;;;;;;;;;;4927933;29;20055;-92
2022/01/10 14:28:52;;;;;;;4.40;1.10;;;;;;;;;;4927262;29;20059;-93
2022/01/10 14:31:19;;;;;;;2.95;1.10;;;;;;;;;;4930252;29;20055;-92
2022/01/10 14:33:47;;;;;;;2.92;1.23;;;;;;;;;;4931792;29;20142;-93
2022/01/10 14:36:15;;;;;;;2.83;1.13;;;;;;;;;;4928730;29;20111;-93
2022/01/10 14:38:42;;;;;;;4.43;1.63;;;;;;;;;;4930361;29;20048;-91
2022/01/10 14:41:10;;;;;;;4.50;1.35;;;;;;;;;;4931516;29;20083;-93
2022/01/10 14:43:38;;;;;;;4.40;1.77;;;;;;;;;;4926533;29;20366;-87
2022/01/10 14:46:05;;;;;;;4.70;1.23;;;;;;;;;;4925905;29;20052;-87
2022/01/10 14:48:32;;;;;;;2.83;1.25;;;;;;;;;;4927414;29;20054;-85
2022/01/10 14:50:59;;;;;;;2.45;1.17;;;;;;;;;;4912199;29;20048;-86
2022/01/10 14:53:25;;;;;;;2.13;1.00;;;;;;;;;;4928098;29;20048;-85
2022/01/10 14:55:55;;;;;;;3.92;1.35;;;;;;;;;;4928102;29;20404;-86
2022/01/10 14:58:22;;;;;;;3.90;1.40;;;;;;;;;;4921497;29;20050;-87
2022/01/10 15:00:50;;;;;;;3.90;1.52;;;;;;;;;;4927569;29;20110;-85
2022/01/10 15:03:19;;;;;;;20.27;9.50;;;;;;;;;;4925175;29;20477;-86
2022/01/10 15:05:47;;;;;;;;;;;;;;;;;;4928034;29;20551;-86
2022/01/10 15:08:18;;;;;;;7.72;4.60;;;;;;;;;;4925676;29;19923;-87
2022/01/10 15:10:45;;;;;;;12.52;6.13;;;;;;;;;;4909487;29;20058;-85
2022/01/10 15:13:12;;;;;;;29.10;14.90;;;;;;;;;;4928153;29;20488;-86
2022/01/10 15:15:43;;;;;;;12.80;5.47;;;;;;;;;;4926702;29;20052;-85
2022/01/10 15:18:11;;;;;;;9.07;4.47;;;;;;;;;;4927864;29;20060;-87
2022/01/10 15:20:39;;;;;;;70.03;33.00;;;;;;;;;;4928581;29;20046;-86
2022/01/10 15:23:07;;;;;;;12.17;4.43;;;;;;;;;;4927318;29;20095;-87
2022/01/10 15:25:34;;;;;;;24.98;11.10;;;;;;;;;;4926859;29;20075;-87
2022/01/10 15:28:00;;;;;;;10.95;5.60;;;;;;;;;;4929802;29;20051;-86
2022/01/10 15:30:32;;;;;;;8.98;4.97;;;;;;;;;;4908388;29;20553;-88
2022/01/10 15:33:00;;;;;;;19.52;10.60;;;;;;;;;;4928798;29;20071;-88
2022/01/10 15:35:27;;;;;;;19.83;11.43;;;;;;;;;;4929583;29;20048;-86
2022/01/10 15:37:54;;;;;;;14.65;8.13;;;;;;;;;;4909137;29;20106;-85
2022/01/10 15:40:21;;;;;;;19.00;10.48;;;;;;;;;;4907647;29;20070;-86
2022/01/10 15:42:48;;;;;;;26.75;13.65;;;;;;;;;;4928297;29;20145;-86
2022/01/10 15:45:15;;;;;;;44.70;21.42;;;;;;;;;;4929312;29;20110;-87
2022/01/10 15:47:45;;;;;;;13.30;7.55;;;;;;;;;;4929015;29;20056;-85
2022/01/10 15:50:13;;;;;;;28.85;14.75;;;;;;;;;;4927328;29;20087;-84
2022/01/10 15:52:44;;;;;;;8.27;4.25;;;;;;;;;;4927572;29;20059;-87
2022/01/10 15:55:12;;;;;;;16.30;9.00;;;;;;;;;;4927639;29;20048;-86
2022/01/10 15:57:40;;;;;;;11.95;6.60;;;;;;;;;;4909915;29;20051;-85
2022/01/10 16:00:09;;;;;;;16.42;8.68;;;;;;;;;;4910951;29;20051;-88
2022/01/10 16:02:36;;;;;;;13.30;7.20;;;;;;;;;;4929143;29;20054;-85
2022/01/10 16:05:05;;;;;;;7.18;3.00;;;;;;;;;;4928785;29;20048;-87
2022/01/10 16:07:32;;;;;;;6.43;2.67;;;;;;;;;;4926804;29;20047;-86
2022/01/10 16:10:00;;;;;;;7.47;4.85;;;;;;;;;;4929299;29;20047;-88
2022/01/10 16:12:27;;;;;;;6.10;3.50;;;;;;;;;;4927718;29;20082;-88
2022/01/10 16:14:54;;;;;;;2.45;1.45;;;;;;;;;;4931839;29;20048;-89
2022/01/10 16:17:21;;;;;;;3.60;1.88;;;;;;;;;;4909388;29;20054;-88
2022/01/10 16:19:48;;;;;;;12.27;8.85;;;;;;;;;;4929023;29;20844;-87
2022/01/10 16:22:16;;;;;;;5.43;3.05;;;;;;;;;;4910822;29;20110;-88
2022/01/10 16:24:43;;;;;;;6.63;3.60;;;;;;;;;;4927936;29;20112;-86
2022/01/10 16:27:10;;;;;;;9.75;3.70;;;;;;;;;;4929047;29;20571;-88
2022/01/10 16:29:39;;;;;;;7.70;2.90;;;;;;;;;;4914741;29;20052;-89
2022/01/10 16:32:06;;;;;;;;;;;;;;;;;;4928054;29;20078;-87
2022/01/10 16:34:33;;;;;;;8.45;3.40;;;;;;;;;;4906947;29;19961;-88
2022/01/10 16:37:00;;;;;;;8.07;3.38;;;;;;;;;;4929059;29;20099;-90
2022/01/10 16:39:28;;;;;;;13.25;7.20;;;;;;;;;;4904679;29;20131;-89
2022/01/10 16:41:56;;;;;;;7.05;4.15;;;;;;;;;;4914203;29;20429;-88
2022/01/10 16:44:23;;;;;;;9.05;3.65;;;;;;;;;;4930759;29;20464;-88
2022/01/10 16:46:50;;;;;;;10.25;3.10;;;;;;;;;;4914482;29;20055;-88
2022/01/10 16:49:16;;;;;;;14.45;5.78;;;;;;;;;;4913169;29;20051;-88
2022/01/10 16:51:43;;;;;;;8.80;3.42;;;;;;;;;;4928890;29;20944;-90
2022/01/10 16:54:10;;;;;;;12.85;5.20;;;;;;;;;;4929181;29;20111;-89
2022/01/10 16:56:42;;;;;;;11.07;5.53;;;;;;;;;;4913921;29;20074;-88
2022/01/10 16:59:09;;;;;;;11.82;5.25;;;;;;;;;;4929956;29;20044;-89
2022/01/10 17:01:37;;;;;;;12.00;6.45;;;;;;;;;;4930254;29;20110;-90
2022/01/10 17:04:04;;;;;;;23.73;9.77;;;;;;;;;;4929537;29;20051;-89
2022/01/10 17:06:31;;;;;;;19.15;9.18;;;;;;;;;;4928485;29;20052;-90
2022/01/10 17:08:59;;;;;;;13.83;6.43;;;;;;;;;;4910888;29;20039;-88
2022/01/10 17:11:25;;;;;;;14.55;7.20;;;;;;;;;;4913302;29;20055;-89
2022/01/10 17:13:52;;;;;;;24.83;9.90;;;;;;;;;;4929283;29;20099;-87
2022/01/10 17:16:19;;;;;;;19.90;7.68;;;;;;;;;;4927375;29;20055;-89
2022/01/10 17:18:47;;;;;;;15.70;6.53;;;;;;;;;;4929633;29;20058;-89
2022/01/10 17:21:14;;;;;;;23.00;9.18;;;;;;;;;;4909227;29;20048;-90
2022/01/10 17:23:40;;;;;;;18.25;8.18;;;;;;;;;;4929677;29;20569;-89
2022/01/10 17:26:07;;;;;;;36.80;14.45;;;;;;;;;;4913459;29;20067;-89
2022/01/10 17:28:37;;;;;;;57.40;28.17;;;;;;;;;;4928235;29;20567;-87
2022/01/10 17:31:06;;;;;;;28.65;19.30;;;;;;;;;;4929983;29;20047;-90
2022/01/10 17:33:33;;;;;;;11.68;6.50;;;;;;;;;;4929480;29;20062;-87
2022/01/10 17:36:00;;;;;;;9.57;5.32;;;;;;;;;;4912983;29;20050;-89
2022/01/10 17:38:31;;;;;;;10.43;5.65;;;;;;;;;;4930672;29;20044;-90
2022/01/10 17:41:00;;;;;;;13.70;7.20;;;;;;;;;;4930455;29;20071;-88
2022/01/10 17:43:27;;;;;;;10.63;6.82;;;;;;;;;;4929747;29;20051;-88
2022/01/10 17:45:54;;;;;;;11.73;6.10;;;;;;;;;;4910657;29;20110;-91
2022/01/10 17:48:23;;;;;;;16.48;6.20;;;;;;;;;;4908978;29;20138;-88
2022/01/10 17:50:53;;;;;;;12.02;6.53;;;;;;;;;;4915392;29;20052;-92
2022/01/10 17:53:21;;;;;;;17.50;7.40;;;;;;;;;;4929430;29;20055;-91
2022/01/10 17:55:48;;;;;;;17.98;7.53;;;;;;;;;;4932738;29;20047;-95
2022/01/10 17:58:15;;;;;;;17.33;8.63;;;;;;;;;;4931581;29;20043;-95
2022/01/10 18:00:42;;;;;;;16.10;7.65;;;;;;;;;;4931877;29;20047;-93
2022/01/10 18:03:10;;;;;;;14.73;5.93;;;;;;;;;;4927512;29;20186;-91
2022/01/10 18:05:37;;;;;;;15.80;9.05;;;;;;;;;;4914645;29;20052;-92
2022/01/10 18:08:13;;;;;;;14.43;7.88;;;;;;;;;;4914808;29;20055;-92
2022/01/10 18:10:41;;;;;;;17.60;6.80;;;;;;;;;;4932412;29;20047;-92
2022/01/10 18:13:08;;;;;;;11.33;7.93;;;;;;;;;;4923993;29;20488;-89
2022/01/10 18:15:35;;;;;;;10.95;5.63;;;;;;;;;;4922449;29;20134;-92
2022/01/10 18:18:02;;;;;;;8.40;5.82;;;;;;;;;;4926907;29;20055;-89
2022/01/10 18:20:29;;;;;;;9.65;6.40;;;;;;;;;;4910653;29;20528;-89
2022/01/10 18:22:56;;;;;;;8.57;5.75;;;;;;;;;;4928842;29;20107;-91
2022/01/10 18:25:23;;;;;;;11.15;6.65;;;;;;;;;;4924320;29;20134;-90
2022/01/10 18:27:52;;;;;;;10.05;5.53;;;;;;;;;;4922958;29;20056;-89
2022/01/10 18:30:22;;;;;;;11.82;5.00;;;;;;;;;;4912875;29;20063;-88
2022/01/10 18:32:52;;;;;;;13.02;5.78;;;;;;;;;;4911483;29;20052;-91
2022/01/10 18:35:20;;;;;;;9.05;5.38;;;;;;;;;;4906961;29;20052;-91
2022/01/10 18:37:48;;;;;;;12.05;6.43;;;;;;;;;;4929085;29;20055;-91
2022/01/10 18:40:16;;;;;;;17.33;6.97;;;;;;;;;;4930272;29;20043;-88
2022/01/10 18:42:44;;;;;;;14.55;7.75;;;;;;;;;;4915119;29;20046;-91
2022/01/10 18:45:11;;;;;;;12.45;7.95;;;;;;;;;;4931361;29;20055;-90
2022/01/10 18:47:38;;;;;;;13.68;7.57;;;;;;;;;;4912031;29;20048;-89
2022/01/10 18:50:07;;;;;;;13.27;8.13;;;;;;;;;;4903973;29;20123;-89
2022/01/10 18:52:34;;;;;;;18.65;8.10;;;;;;;;;;4926125;29;20079;-90
2022/01/10 18:55:00;;;;;;;19.17;8.82;;;;;;;;;;4930404;29;20126;-89
2022/01/10 18:57:27;;;;;;;16.73;7.38;;;;;;;;;;4929556;29;20092;-87
2022/01/10 18:59:54;;;;;;;17.95;7.97;;;;;;;;;;4927508;29;20052;-91
2022/01/10 19:02:21;;;;;;;13.88;6.38;;;;;;;;;;4929825;29;20505;-90
2022/01/10 19:04:48;;;;;;;18.27;6.63;;;;;;;;;;4914807;29;20067;-91
2022/01/10 19:07:17;;;;;;;12.32;6.45;;;;;;;;;;4930133;29;20071;-88
2022/01/10 19:09:44;;;;;;;14.63;6.93;;;;;;;;;;4928185;29;20428;-91
2022/01/10 19:12:11;;;;;;;16.25;6.90;;;;;;;;;;4929696;29;20051;-90
2022/01/10 19:14:38;;;;;;;16.05;6.55;;;;;;;;;;4909235;29;20056;-93
2022/01/10 19:17:09;;;;;;;18.95;8.00;;;;;;;;;;4917953;29;20060;-84
2022/01/10 19:19:37;;;;;;;23.48;10.02;;;;;;;;;;4929272;29;20063;-85
2022/01/10 19:22:05;;;;;;;47.72;29.67;;;;;;;;;;4929937;29;20520;-84
2022/01/10 19:24:32;;;;;;;44.88;20.30;;;;;;;;;;4929050;29;20069;-85
2022/01/10 19:26:59;;;;;;;59.50;33.08;;;;;;;;;;4930112;29;20107;-85
2022/01/10 19:29:26;;;;;;;64.55;38.13;;;;;;;;;;4929751;29;20044;-84
2022/01/10 19:31:53;;;;;;;41.60;25.00;;;;;;;;;;4929307;29;20051;-84
2022/01/10 19:34:21;;;;;;;83.20;47.47;;;;;;;;;;4910902;29;20044;-85
2022/01/10 19:36:48;;;;;;;36.70;18.20;;;;;;;;;;4928599;29;20044;-84
2022/01/10 19:39:14;;;;;;;30.70;11.20;;;;;;;;;;4922514;29;20052;-85
2022/01/10 19:41:41;;;;;;;26.95;12.57;;;;;;;;;;4927765;29;20155;-84
2022/01/10 19:44:08;;;;;;;25.42;10.25;;;;;;;;;;4928238;29;20110;-85
2022/01/10 19:46:35;;;;;;;26.10;11.60;;;;;;;;;;4929180;29;20086;-85
2022/01/10 19:49:02;;;;;;;23.60;10.13;;;;;;;;;;4929986;29;20048;-84
2022/01/10 19:51:29;;;;;;;29.52;10.75;;;;;;;;;;4929027;29;20040;-85
2022/01/10 19:53:56;;;;;;;25.95;10.63;;;;;;;;;;4929255;29;20048;-91
2022/01/10 19:56:23;;;;;;;21.75;11.55;;;;;;;;;;4926139;29;20818;-91
2022/01/10 19:58:49;;;;;;;25.65;10.95;;;;;;;;;;4931182;29;20063;-93
2022/01/10 20:01:16;;;;;;;23.70;10.35;;;;;;;;;;4917435;29;20118;-92
2022/01/10 20:03:43;;;;;;;25.80;10.60;;;;;;;;;;4910298;29;20062;-92
2022/01/10 20:06:10;;;;;;;25.50;10.25;;;;;;;;;;4916249;29;20050;-92
2022/01/10 20:08:37;;;;;;;22.73;10.60;;;;;;;;;;4931465;29;20055;-87
2022/01/10 20:11:05;;;;;;;21.65;10.32;;;;;;;;;;4931235;29;20044;-87
2022/01/10 20:13:32;;;;;;;26.58;12.15;;;;;;;;;;4917205;29;20106;-91
2022/01/10 20:15:59;;;;;;;22.98;11.70;;;;;;;;;;4930343;29;20720;-86
2022/01/10 20:18:26;;;;;;;22.27;8.80;;;;;;;;;;4910125;29;20968;-88
2022/01/10 20:20:53;;;;;;;22.92;9.45;;;;;;;;;;4932668;29;20071;-89
2022/01/10 20:23:22;;;;;;;20.08;8.95;;;;;;;;;;4931745;29;20051;-89
2022/01/10 20:25:51;;;;;;;23.23;12.55;;;;;;;;;;4928477;29;20063;-86
2022/01/10 20:28:19;;;;;;;24.25;14.85;;;;;;;;;;4925543;29;20420;-88
2022/01/10 20:30:46;;;;;;;21.65;9.15;;;;;;;;;;4932446;29;20515;-89
2022/01/10 20:33:14;;;;;;;24.85;8.77;;;;;;;;;;4914844;29;20107;-89
2022/01/10 20:35:41;;;;;;;25.38;9.70;;;;;;;;;;4930268;29;20058;-88
2022/01/10 20:38:08;;;;;;;41.45;22.98;;;;;;;;;;4926069;29;20055;-85
2022/01/10 20:40:37;;;;;;;32.35;20.73;;;;;;;;;;4931710;29;20130;-86
2022/01/10 20:43:05;;;;;;;;;;;;;;;;;;4931956;29;20056;-87
2022/01/10 20:45:32;;;;;;;48.92;21.08;;;;;;;;;;4928558;29;19926;-87
2022/01/10 20:47:59;;;;;;;45.53;25.60;;;;;;;;;;4913024;29;20150;-85
2022/01/10 20:50:26;;;;;;;55.22;34.95;;;;;;;;;;4929780;29;20048;-87
2022/01/10 20:52:54;;;;;;;30.17;13.52;;;;;;;;;;4928887;29;20059;-87
2022/01/10 20:55:22;;;;;;;33.78;14.70;;;;;;;;;;4929545;29;20513;-88